Terminal Aerodrome Forecast
Issued by NWS Twin Cities, MN

Home | Current Version | Previous Version | Text Only | Print | Product List | Glossary Off
Versions: 1 2 3 4 5 6 7 8 9 10 11 12 13 14 15 16 17 18 19

000
FTUS43 KMPX 260252 AAA
TAFSTC
TAF AMD
KSTC 260252Z 2603/2624 29015KT P6SM VCSH SCT035 OVC060
     FM261000 29014G20KT P6SM SCT040
     FM261500 30020G32KT P6SM SKC
     FM261700 30023G32KT P6SM BKN050=

USA.gov is the U.S. government's official web portal to all federal, state and local government web resources and services.